메인 페이지
METAR-TAF:

METAR-TAF

공항 :

키시너우 국제공항

키시너우, 몰도바

위도: 46-55-40N, 경도: 028-55-51E, 고도: 122m

현재 날씨관측

예보는 30분 전, 14:00시(UTC)에 발표되었습니다.
동북동4kt
온도 6°C
습도 100%
기압 1003 hPa
시정: 0350m
안개

METAR: LUKK 141400Z 07004KT 0350 R08/0450N FG VV001 06/06 Q1003 R08/290152 TEMPO 1200 BR

시각: 16:30 (14:30 UTC)

예보

예보는 3 시간 5분 전, 11:25시(UTC)에 발표되었습니다.
예보 대상 시간: 14일 12시부터 15일 12시까지 (UTC)
동남동9kt
시정: 0500m
고도 100ft 상공
안개
일시적
14일 12시부터 14일 18시까지 (UTC)
시정: 1200m
고도 200ft 상공 흐림
박무
전환 중
14일 22시부터 14일 24시까지 (UTC)
서남서9kt
시정: 3000m
고도 1000ft 상공 구름 많음
비, 박무
전환 중
15일 03시부터 15일 05시까지 (UTC)
서북서9kt
시정 10km 이상
1500m 미만 상공 구름 및 적란운 없음

TAF: LUKK 141125Z 1412/1512 12009KT 0500 FG VV001 TEMPO 1412/1418 1200 BR OVC002 BECMG 1422/1424 24009KT 3000 RA BR BKN010 BECMG 1503/1505 30009KT CAVOK

4,000개 이상의 공항 관측 자료 및 예보 (METAR 및 TAF 보고).

지도상에서 검색 가능한 기상관측소가 노란 점과 빨간 점으로 표시되어 있습니다.

기상관측소 명을 보려면 표시 위로 마우스를 이동하세요.

날씨 관측과 예보를 보려면 클릭하세요.

지도 변경 : 확대하려면 엑스 표시가 있는 녹색 버튼, 축소하려면 빼기 표시가 있는 녹색 버튼, 다음 페이지의 지도를 보려면 녹색 화살표를 클릭하세요.


METAR-TAF: